Las horas y fechas están en horario UTC
Sumar 1 hora en el horario de Invierno y 2 horas en el de Verano

Informes METAR cercanos

 

LEZL - Sevilla (civ/Mil, Spain
Distance from station: NNE 24km
Actualización: 20/09/2019 13:30
Despejado
Despejado
 Viento del varies
Viento: varies 4 km/h
Temperatura: 24°C
Rocío: 16°C
Humedad: 61%
Barómetro: 1015 hPa
Resumen: Despejado
Visibility: greater than 10 km
2019/09/20 11:30 LEZL 201130Z VRB02KT CAVOK 24/16 Q1015 NOSIG
LEMO - Moron (sp-Usafb), Spain
Distance from station: E 38km
Actualización: 20/09/2019 13:00
Despejado
Despejado
 Viento del NNE
Viento: NNE 6 km/h
Temperatura: 24°C
Rocío: 14°C
Humedad: 54%
Barómetro: 1015 hPa
Resumen: Despejado
Visibility: greater than 10 km
2019/09/20 11:00 LEMO 201100Z 02003KT CAVOK 24/14 Q1015 NOSIG
LEJR - Jerez (civ/Mil), Spain
Distance from station: S 53km
Actualización: 20/09/2019 13:30
Muy nuboso
Muy nuboso
 Viento del SO
Viento: SO 13 km/h
Temperatura: 25°C
Rocío: 18°C
Humedad: 65%
Barómetro: 1015 hPa
Clouds: Muy nuboso
Visibility: 10 km
Cloud details: Parcialmente nuboso 671 m
Muy nuboso 914 m
2019/09/20 11:30 LEJR 201130Z 23007KT 9999 SCT022 BKN030 25/18 Q1015
 
LERT - Rota Naval Stati, Spain
Distance from station: SSO 71km
Actualización: 20/09/2019 13:00
Few Clouds
Few Clouds
 Viento del S
Viento: S 17 km/h
Temperatura: 23°C
Rocío: 19°C
Humedad: 78%
Barómetro: 1015 hPa
Clouds: Few Clouds
Visibility: 10 km
Cloud details: Few Clouds 762 m
2019/09/20 11:00 LERT 201100Z 19009KT 150V210 9999 FEW025 23/19 Q1015 NOSIG
LEBA - Cordoba Airport, Spain
Distance from station: ENE 128km
Actualización: 20/09/2019 13:30
Despejado
Despejado
 Viento del varies
Viento: varies 4 km/h
Temperatura: 25°C
Rocío: 15°C
Humedad: 54%
Barómetro: 1015 hPa
Resumen: Despejado
Visibility: greater than 10 km
2019/09/20 11:30 LEBA 201130Z VRB02KT CAVOK 25/15 Q1015
LXGB - Gibraltar (civ/M, Gibraltar
Distance from station: SSE 137km
Actualización: 20/09/2019 13:19
Haze, Cubierto
Haze, Cubierto
 Viento del E
Viento: E 11 km/h
Temperatura: 24°C
Rocío: 21°C
Humedad: 83%
Barómetro: 1015 hPa
Resumen: Haze
Clouds: Cubierto
Visibility: 8 km
Cloud details: Few Clouds 427 m
Parcialmente nuboso 640 m
Cubierto 762 m
2019/09/20 11:19 LXGB 201119Z 10006KT 8000 HZ FEW014 SCT021 OVC025 24/21 Q1015 NOSIG RMK WHT WHT
 
LEMG - Malaga (civ/Mil), Spain
Distance from station: ESE 150km
Actualización: 20/09/2019 13:30
Muy nuboso
Muy nuboso
 Viento del E
Viento: E 19 km/h
Temperatura: 25°C
Rocío: 22°C
Humedad: 83%
Barómetro: 1015 hPa
Clouds: Muy nuboso
Visibility: 8 km
Cloud details: Parcialmente nuboso 457 m
Muy nuboso 1219 m
2019/09/20 11:30 LEMG 201130Z 09010KT 050V120 8000 SCT015 BKN040 25/22 Q1015 NOSIG
GMTT - Tangier/Boukhalf, Morocco
Distance from station: S 169km
Actualización: 20/09/2019 13:30
Few Clouds
Few Clouds
 Viento del OSO
Viento: OSO 15 km/h
Temperatura: 24°C
Rocío: 18°C
Humedad: 69%
Barómetro: 1015 hPa
Clouds: Few Clouds
Visibility: 10 km
Cloud details: Few Clouds 305 m
2019/09/20 11:30 GMTT 201130Z 25008KT 9999 FEW010 24/18 Q1015 NOSIG
LPFR - Faro, Portugal
Distance from station: O 172km
Actualización: 20/09/2019 13:30
Few Clouds
Few Clouds
 Viento del SSE
Viento: SSE 9 km/h
Temperatura: 22°C
Rocío: 17°C
Humedad: 73%
Barómetro: 1015 hPa
Clouds: Few Clouds
Visibility: 10 km
Cloud details: Few Clouds 457 m
2019/09/20 11:30 LPFR 201130Z 16005KT 9999 FEW015 22/17 Q1015
 
LPBJ - Beja (por/Ger-Af, Portugal
Distance from station: ONO 192km
Actualización: 20/09/2019 13:00
Few Clouds
Few Clouds
 Viento del ESE
Viento: ESE 9 km/h
Temperatura: 22°C
Rocío: 14°C
Humedad: 61%
Barómetro: 1015 hPa
Clouds: Few Clouds
Visibility: 10 km
Cloud details: Few Clouds 1067 m
2019/09/20 11:00 LPBJ 201100Z 12005KT 080V170 9999 FEW035 22/14 Q1015
LEBZ - Talavera Ab/Bada, Spain
Distance from station: NNO 194km
Actualización: 20/09/2019 13:00
Despejado
Despejado
 Viento del SE
Viento: SE 9 km/h
Temperatura: 24°C
Rocío: 14°C
Humedad: 54%
Barómetro: 1014 hPa
Resumen: Despejado
Visibility: greater than 10 km
2019/09/20 11:00 LEBZ 201100Z 13005KT 070V180 CAVOK 24/14 Q1014
LEMD - Madrid/Barajas, Spain
Distance from station: NE 415km
Actualización: 20/09/2019 13:30
Muy nuboso
Muy nuboso
 Viento del SSE
Viento: SSE 13 km/h
Temperatura: 24°C
Rocío: 15°C
Humedad: 57%
Barómetro: 1017 hPa
Clouds: Muy nuboso
Visibility: 10 km
Cloud details: Parcialmente nuboso 914 m
Muy nuboso 1524 m
2019/09/20 11:30 LEMD 201130Z 16007KT 130V220 9999 SCT030 BKN050 24/15 Q1017 NOSIG